createdAt,value
2023-03-22T00:02:17.528Z,97671.83
2023-03-22T00:04:45.741Z,97669.60
2023-03-22T00:07:14.830Z,97664.71
2023-03-22T00:09:43.169Z,97663.77
2023-03-22T00:12:11.339Z,97663.85
2023-03-22T00:14:41.212Z,97660.82
2023-03-22T00:17:09.434Z,97656.66
2023-03-22T00:19:38.015Z,97654.13
2023-03-22T00:22:07.029Z,97648.11
2023-03-22T00:24:35.204Z,97648.73
2023-03-22T00:27:03.880Z,97647.20
2023-03-22T00:29:32.010Z,97645.51
2023-03-22T00:32:00.184Z,97648.05
2023-03-22T00:34:32.871Z,97645.35
2023-03-22T00:37:01.471Z,97643.50
2023-03-22T00:39:30.468Z,97647.15
2023-03-22T00:41:58.745Z,97646.62
2023-03-22T00:44:27.334Z,97646.30
2023-03-22T00:46:55.599Z,97642.43
2023-03-22T00:49:25.641Z,97641.02
2023-03-22T00:51:54.400Z,97641.70
2023-03-22T00:54:22.591Z,97641.33
2023-03-22T00:56:51.192Z,97637.25
2023-03-22T00:59:19.681Z,97633.65
2023-03-22T01:01:47.914Z,97632.96
2023-03-22T01:04:26.024Z,97630.79
2023-03-22T01:07:00.854Z,97628.98
2023-03-22T01:09:33.793Z,97631.21
2023-03-22T01:12:03.660Z,97634.55
2023-03-22T01:14:32.025Z,97633.95
2023-03-22T01:17:00.755Z,97637.57
2023-03-22T01:19:28.967Z,97634.35
2023-03-22T01:21:57.908Z,97625.59
2023-03-22T01:24:26.863Z,97624.63
2023-03-22T01:26:55.322Z,97628.71
2023-03-22T01:29:24.183Z,97631.77
2023-03-22T01:31:52.864Z,97628.90
2023-03-22T01:34:22.355Z,97632.15
2023-03-22T01:36:51.092Z,97632.38
2023-03-22T01:39:19.815Z,97634.45
2023-03-22T01:41:49.614Z,97633.65
2023-03-22T01:44:20.788Z,97632.31
2023-03-22T01:46:51.455Z,97629.58
2023-03-22T01:49:34.549Z,97633.55
2023-03-22T01:52:08.998Z,97632.74
2023-03-22T01:54:52.365Z,97629.42
2023-03-22T01:57:42.743Z,97632.60
2023-03-22T02:00:19.001Z,97636.89
2023-03-22T02:03:15.584Z,97637.96
2023-03-22T02:05:47.794Z,97641.27
2023-03-22T02:08:16.727Z,97640.24
2023-03-22T02:11:04.665Z,97637.27
2023-03-22T02:13:53.956Z,97638.77
2023-03-22T02:17:07.293Z,97641.88
2023-03-22T02:20:11.263Z,97643.06
2023-03-22T02:22:45.460Z,97644.52
2023-03-22T02:25:31.883Z,97645.60
2023-03-22T02:28:00.231Z,97643.30
2023-03-22T02:30:34.258Z,97642.14
2023-03-22T02:33:41.725Z,97636.27
2023-03-22T02:36:47.395Z,97636.48
2023-03-22T02:39:33.889Z,97635.74
2023-03-22T02:43:13.866Z,97637.17
2023-03-22T02:45:55.405Z,97641.94
2023-03-22T02:48:28.228Z,97649.58
2023-03-22T02:51:04.390Z,97656.15
2023-03-22T02:53:53.351Z,97656.31
2023-03-22T02:56:39.440Z,97652.23
2023-03-22T02:59:12.356Z,97646.45
2023-03-22T03:01:51.885Z,97644.73
2023-03-22T03:04:26.916Z,97652.35
2023-03-22T03:07:02.830Z,97656.16
2023-03-22T03:09:33.253Z,97657.80
2023-03-22T03:12:01.856Z,97658.81
2023-03-22T03:14:32.752Z,97661.55
2023-03-22T03:17:31.211Z,97662.45
2023-03-22T03:20:17.933Z,97661.13
2023-03-22T03:23:50.600Z,97664.92
2023-03-22T03:26:30.162Z,97669.54
2023-03-22T03:29:14.569Z,97669.89
2023-03-22T03:32:05.413Z,97670.05
2023-03-22T03:34:51.499Z,97670.84
2023-03-22T03:37:24.820Z,97665.77
2023-03-22T03:40:02.770Z,97663.14
2023-03-22T03:42:32.434Z,97668.75
2023-03-22T03:45:01.865Z,97669.98
2023-03-22T03:47:32.303Z,97667.98
2023-03-22T03:50:00.881Z,97671.81
2023-03-22T03:52:29.467Z,97669.38
2023-03-22T03:54:58.265Z,97669.21
2023-03-22T03:57:31.148Z,97668.92
2023-03-22T03:59:59.281Z,97668.14
2023-03-22T04:02:45.412Z,97664.66
2023-03-22T04:05:25.866Z,97666.48
2023-03-22T04:07:53.953Z,97667.37
2023-03-22T04:10:22.197Z,97668.91
2023-03-22T04:12:50.307Z,97671.66
2023-03-22T04:15:19.165Z,97673.45
2023-03-22T04:17:51.745Z,97679.81
2023-03-22T04:20:21.147Z,97679.20
2023-03-22T04:22:49.522Z,97683.36
2023-03-22T04:25:18.353Z,97684.70
2023-03-22T04:28:00.681Z,97690.10
2023-03-22T04:30:30.994Z,97691.55
2023-03-22T04:33:10.939Z,97691.35
2023-03-22T04:35:57.274Z,97699.11
2023-03-22T04:38:30.263Z,97702.22
2023-03-22T04:40:58.563Z,97700.21
2023-03-22T04:43:39.430Z,97700.19
2023-03-22T04:46:12.926Z,97701.39
2023-03-22T04:48:47.844Z,97697.23
2023-03-22T04:51:16.938Z,97698.73
2023-03-22T04:53:54.719Z,97702.44
2023-03-22T04:56:23.111Z,97703.77
2023-03-22T04:58:51.992Z,97708.39
2023-03-22T05:01:20.295Z,97711.63
2023-03-22T05:03:52.130Z,97708.40
2023-03-22T05:06:22.879Z,97709.36
2023-03-22T05:09:01.115Z,97707.00
2023-03-22T05:11:29.670Z,97707.10
2023-03-22T05:14:17.312Z,97711.81
2023-03-22T05:16:45.514Z,97712.20
2023-03-22T05:19:16.616Z,97718.39
2023-03-22T05:21:48.870Z,97719.66
2023-03-22T05:24:17.339Z,97719.09
2023-03-22T05:26:47.478Z,97724.52
2023-03-22T05:29:15.746Z,97728.27
2023-03-22T05:31:58.446Z,97731.35
2023-03-22T05:34:35.381Z,97735.27
2023-03-22T05:37:10.281Z,97737.52
2023-03-22T05:39:58.683Z,97735.09
2023-03-22T05:42:34.268Z,97737.90
2023-03-22T05:45:03.770Z,97741.92
2023-03-22T05:47:31.984Z,97741.23
2023-03-22T05:50:05.478Z,97740.77
2023-03-22T05:52:34.289Z,97740.34
2023-03-22T05:55:32.288Z,97746.17
2023-03-22T05:58:03.274Z,97748.80
2023-03-22T06:00:32.270Z,97751.06
2023-03-22T06:03:18.929Z,97749.27
2023-03-22T06:05:54.937Z,97746.50
2023-03-22T06:08:34.330Z,97749.24
2023-03-22T06:11:02.783Z,97750.95
2023-03-22T06:13:31.455Z,97754.61
2023-03-22T06:16:02.196Z,97755.96
2023-03-22T06:18:31.732Z,97761.30
2023-03-22T06:21:05.877Z,97765.23
2023-03-22T06:23:34.118Z,97766.48
2023-03-22T06:26:02.456Z,97767.70
2023-03-22T06:28:31.141Z,97772.83
2023-03-22T06:31:06.949Z,97768.26
2023-03-22T06:33:43.401Z,97769.04
2023-03-22T06:36:21.680Z,97772.98
2023-03-22T06:39:05.448Z,97776.72
2023-03-22T06:41:34.439Z,97778.98
2023-03-22T06:44:03.005Z,97780.20
2023-03-22T06:46:50.079Z,97780.98
2023-03-22T06:49:37.879Z,97780.50
2023-03-22T06:52:06.949Z,97781.58
2023-03-22T06:54:35.707Z,97781.15
2023-03-22T06:57:04.128Z,97777.73
2023-03-22T06:59:32.601Z,97779.81
2023-03-22T07:02:01.397Z,97783.06
2023-03-22T07:04:30.099Z,97784.33
2023-03-22T07:06:58.193Z,97786.05
2023-03-22T07:09:27.860Z,97790.69
2023-03-22T07:11:58.842Z,97793.75
2023-03-22T07:14:28.812Z,97790.98
2023-03-22T07:17:05.583Z,97792.29
2023-03-22T07:19:34.979Z,97794.48
2023-03-22T07:22:07.105Z,97793.91
2023-03-22T07:24:37.202Z,97794.68
2023-03-22T07:27:09.325Z,97796.30
2023-03-22T07:29:37.812Z,97792.29
2023-03-22T07:32:06.778Z,97796.65
2023-03-22T07:34:51.109Z,97797.08
2023-03-22T07:37:20.455Z,97796.41
2023-03-22T07:39:48.778Z,97793.43
2023-03-22T07:42:16.982Z,97794.73
2023-03-22T07:45:11.735Z,97791.63
2023-03-22T07:47:45.983Z,97788.17
2023-03-22T07:50:20.864Z,97789.55
2023-03-22T07:52:52.931Z,97789.48
2023-03-22T07:55:21.233Z,97786.89
2023-03-22T07:57:49.616Z,97784.30
2023-03-22T08:00:18.647Z,97788.76
2023-03-22T08:02:52.124Z,97790.84
2023-03-22T08:05:49.145Z,97793.80
2023-03-22T08:08:17.505Z,97788.83
2023-03-22T08:10:51.334Z,97783.75
2023-03-22T08:13:19.470Z,97788.12
2023-03-22T08:15:47.670Z,97793.58
2023-03-22T08:18:16.044Z,97798.13
2023-03-22T08:20:45.844Z,97796.30
2023-03-22T08:23:19.069Z,97798.26
2023-03-22T08:26:08.682Z,97798.36
2023-03-22T08:28:38.532Z,97800.59
2023-03-22T08:31:15.563Z,97799.70
2023-03-22T08:33:44.824Z,97801.83
2023-03-22T08:36:20.906Z,97807.08
2023-03-22T08:38:53.664Z,97806.96
2023-03-22T08:41:25.811Z,97806.73
2023-03-22T08:43:54.026Z,97807.10
2023-03-22T08:46:22.563Z,97801.64
2023-03-22T08:48:52.849Z,97807.09
2023-03-22T08:51:29.363Z,97804.98
2023-03-22T08:54:15.910Z,97806.05
2023-03-22T08:56:53.795Z,97804.30
2023-03-22T08:59:42.497Z,97805.02
2023-03-22T09:02:46.039Z,97803.81
2023-03-22T09:05:15.020Z,97804.98
2023-03-22T09:07:43.806Z,97803.56
2023-03-22T09:10:18.657Z,97804.06
2023-03-22T09:12:49.178Z,97801.48
2023-03-22T09:15:18.507Z,97801.20
2023-03-22T09:17:58.429Z,97796.08
2023-03-22T09:20:27.422Z,97793.98
2023-03-22T09:22:57.281Z,97789.43
2023-03-22T09:25:25.712Z,97790.01
2023-03-22T09:27:53.989Z,97786.33
2023-03-22T09:30:22.208Z,97787.82
2023-03-22T09:32:50.591Z,97785.10
2023-03-22T09:35:18.982Z,97778.14
2023-03-22T09:37:59.007Z,97775.98
2023-03-22T09:40:30.445Z,97772.97
2023-03-22T09:43:03.194Z,97765.79
2023-03-22T09:45:42.093Z,97760.84
2023-03-22T09:48:24.461Z,97760.48
2023-03-22T09:50:54.990Z,97758.54
2023-03-22T09:53:27.027Z,97752.59
2023-03-22T09:56:15.579Z,97753.70
2023-03-22T09:59:18.065Z,97756.02
2023-03-22T10:02:00.658Z,97755.77
2023-03-22T10:04:59.969Z,97757.59
2023-03-22T10:08:14.632Z,97756.73
2023-03-22T10:10:43.516Z,97754.05
2023-03-22T10:13:19.825Z,97754.30
2023-03-22T10:15:56.293Z,97756.63
2023-03-22T10:18:34.462Z,97758.94
2023-03-22T10:21:11.089Z,97755.08
2023-03-22T10:23:48.222Z,97748.35
2023-03-22T10:26:30.544Z,97746.64
2023-03-22T10:29:04.820Z,97746.65
2023-03-22T10:31:34.714Z,97744.41
2023-03-22T10:34:11.012Z,97744.27
2023-03-22T10:36:41.552Z,97740.77
2023-03-22T10:39:31.187Z,97733.91
2023-03-22T10:42:03.068Z,97730.05
2023-03-22T10:44:39.044Z,97731.14
2023-03-22T10:47:11.447Z,97735.10
2023-03-22T10:49:45.014Z,97737.44
2023-03-22T10:52:26.597Z,97739.18
2023-03-22T10:55:02.348Z,97732.56
2023-03-22T10:57:32.157Z,97731.77
2023-03-22T11:00:00.460Z,97727.20
2023-03-22T11:02:32.179Z,97720.11
2023-03-22T11:05:07.264Z,97715.11
2023-03-22T11:07:38.633Z,97709.02
2023-03-22T11:10:09.778Z,97707.93
2023-03-22T11:12:41.684Z,97706.85
2023-03-22T11:15:31.618Z,97702.77
2023-03-22T11:18:08.257Z,97698.04
2023-03-22T11:20:42.211Z,97693.95
2023-03-22T11:23:18.152Z,97697.12
2023-03-22T11:25:48.764Z,97693.23
2023-03-22T11:28:27.978Z,97692.23
2023-03-22T11:31:07.199Z,97693.64
2023-03-22T11:33:37.235Z,97687.48
2023-03-22T11:36:17.726Z,97685.00
2023-03-22T11:38:47.254Z,97687.80
2023-03-22T11:41:26.141Z,97686.73
2023-03-22T11:43:57.051Z,97683.73
2023-03-22T11:46:26.061Z,97682.76
2023-03-22T11:49:00.843Z,97679.23
2023-03-22T11:51:33.644Z,97673.41
2023-03-22T11:54:24.118Z,97672.84
2023-03-22T11:56:58.082Z,97672.54
2023-03-22T11:59:36.500Z,97669.05
2023-03-22T12:02:17.436Z,97663.19
2023-03-22T12:04:50.041Z,97660.57
2023-03-22T12:07:24.784Z,97661.13
2023-03-22T12:10:00.480Z,97654.52
2023-03-22T12:12:37.688Z,97660.16
2023-03-22T12:15:12.898Z,97662.64
2023-03-22T12:17:56.820Z,97660.77
2023-03-22T12:20:43.203Z,97659.59
2023-03-22T12:23:17.681Z,97659.58
2023-03-22T12:26:18.045Z,97660.27
2023-03-22T12:29:15.500Z,97657.82
2023-03-22T12:31:55.119Z,97657.95
2023-03-22T12:34:33.765Z,97652.20
2023-03-22T12:37:05.435Z,97649.64
2023-03-22T12:39:47.258Z,97649.24
2023-03-22T12:42:23.263Z,97638.73
2023-03-22T12:45:04.515Z,97636.17
2023-03-22T12:47:43.441Z,97641.73
2023-03-22T12:50:26.133Z,97638.80
2023-03-22T12:52:57.018Z,97637.13
2023-03-22T12:55:30.854Z,97633.89
2023-03-22T12:58:00.310Z,97637.13
2023-03-22T13:00:53.367Z,97640.39
2023-03-22T13:03:36.860Z,97637.63
2023-03-22T13:06:44.724Z,97633.34
2023-03-22T13:09:28.329Z,97628.91
2023-03-22T13:12:18.335Z,97625.71
2023-03-22T13:14:49.649Z,97625.65
2023-03-22T13:17:24.017Z,97627.63
2023-03-22T13:20:08.130Z,97619.98
2023-03-22T13:22:36.530Z,97629.50
2023-03-22T13:25:13.155Z,97627.26
2023-03-22T13:27:57.542Z,97622.89
2023-03-22T13:30:53.108Z,97623.37
2023-03-22T13:33:29.128Z,97622.66
2023-03-22T13:36:07.429Z,97621.48
2023-03-22T13:38:42.385Z,97619.62
2023-03-22T13:41:14.026Z,97625.90
2023-03-22T13:43:54.985Z,97615.73
2023-03-22T13:46:23.420Z,97617.33
2023-03-22T13:49:14.464Z,97613.95
2023-03-22T13:51:44.183Z,97610.42
2023-03-22T13:54:13.381Z,97611.39
2023-03-22T13:56:42.471Z,97609.62
2023-03-22T13:59:32.561Z,97614.27
2023-03-22T14:02:22.662Z,97611.31
2023-03-22T14:04:56.529Z,97612.35
2023-03-22T14:07:48.523Z,97614.34
2023-03-22T14:10:22.845Z,97613.55
2023-03-22T14:12:59.991Z,97614.98
2023-03-22T14:15:50.040Z,97614.05
2023-03-22T14:18:25.955Z,97615.63
2023-03-22T14:21:12.512Z,97610.10
